createdAt,value
2019-03-31T00:01:12.000Z,83.25
2019-03-31T00:01:51.003Z,82.96
2019-03-31T00:02:51.503Z,82.39
2019-03-31T00:03:51.496Z,82.96
2019-03-31T00:04:55.497Z,82.68
2019-03-31T00:05:51.496Z,82.10
2019-03-31T00:06:52.000Z,82.39
2019-03-31T00:07:55.934Z,82.29
2019-03-31T00:08:51.995Z,83.06
2019-03-31T00:10:16.496Z,83.34
2019-03-31T00:10:52.498Z,84.20
2019-03-31T00:12:13.496Z,84.39
2019-03-31T00:12:52.502Z,84.77
2019-03-31T00:13:52.504Z,84.10
2019-03-31T00:14:59.004Z,84.20
2019-03-31T00:15:52.996Z,83.82
2019-03-31T00:16:53.010Z,83.44
2019-03-31T00:17:52.998Z,83.72
2019-03-31T00:18:53.500Z,83.62
2019-03-31T00:19:53.496Z,84.10
2019-03-31T00:20:57.006Z,84.77
2019-03-31T00:21:53.496Z,84.77
2019-03-31T00:24:25.237Z,84.48
2019-03-31T00:25:46.242Z,83.91
2019-03-31T00:26:29.238Z,83.44
2019-03-31T00:27:46.739Z,83.72
2019-03-31T00:28:46.738Z,84.20
2019-03-31T00:29:29.676Z,84.29
2019-03-31T00:30:25.737Z,84.48
2019-03-31T00:31:25.739Z,83.72
2019-03-31T00:32:29.239Z,83.44
2019-03-31T00:33:26.238Z,82.77
2019-03-31T00:34:26.242Z,83.06
2019-03-31T00:35:27.679Z,83.25
2019-03-31T00:36:26.739Z,83.25
2019-03-31T00:37:30.738Z,83.62
2019-03-31T00:38:26.738Z,83.82
2019-03-31T00:39:26.739Z,83.62
2019-03-31T00:40:26.739Z,83.53
2019-03-31T00:41:28.218Z,83.72
2019-03-31T00:42:30.736Z,82.96
2019-03-31T00:43:27.238Z,83.06
2019-03-31T00:44:27.237Z,82.68
2019-03-31T00:45:27.745Z,83.06
2019-03-31T00:46:27.742Z,83.30
2019-03-31T00:47:31.737Z,83.34
2019-03-31T00:48:27.738Z,83.39
2019-03-31T00:49:28.237Z,83.53
2019-03-31T00:50:28.245Z,83.59
2019-03-31T00:51:49.233Z,83.59
2019-03-31T00:52:28.245Z,83.49
2019-03-31T00:53:31.735Z,83.30
2019-03-31T00:54:28.821Z,84.16
2019-03-31T00:55:28.740Z,83.78
2019-03-31T00:56:28.747Z,84.44
2019-03-31T01:02:07.256Z,84.53
2019-03-31T01:03:07.257Z,84.72
2019-03-31T01:04:09.757Z,85.39
2019-03-31T01:05:07.757Z,85.20
2019-03-31T01:06:07.764Z,85.01
2019-03-31T01:07:07.757Z,84.34
2019-03-31T01:08:07.757Z,84.91
2019-03-31T01:09:11.757Z,85.20
2019-03-31T01:10:10.192Z,85.01
2019-03-31T01:11:08.259Z,84.53
2019-03-31T01:12:08.262Z,84.72
2019-03-31T01:13:10.757Z,85.01
2019-03-31T01:14:08.764Z,84.63
2019-03-31T01:15:12.762Z,84.34
2019-03-31T01:16:08.759Z,85.01
2019-03-31T01:17:09.256Z,84.72
2019-03-31T01:18:09.255Z,85.01
2019-03-31T01:19:09.256Z,84.91
2019-03-31T01:20:09.256Z,84.72
2019-03-31T01:21:12.756Z,85.01
2019-03-31T01:22:09.756Z,85.49
2019-03-31T01:23:11.760Z,85.77
2019-03-31T01:24:09.756Z,85.01
2019-03-31T01:25:31.251Z,85.86
2019-03-31T01:26:13.755Z,84.91
2019-03-31T01:27:10.257Z,85.49
2019-03-31T01:28:10.254Z,85.01
2019-03-31T01:29:13.190Z,85.96
2019-03-31T01:30:11.689Z,85.77
2019-03-31T01:31:10.839Z,84.91
2019-03-31T01:32:14.755Z,85.39
2019-03-31T01:33:11.257Z,85.39
2019-03-31T01:34:11.257Z,85.30
2019-03-31T01:35:32.261Z,85.77
2019-03-31T01:36:11.281Z,85.30
2019-03-31T01:37:11.755Z,85.39
2019-03-31T01:38:14.757Z,85.20
2019-03-31T01:39:11.756Z,85.01
2019-03-31T01:40:11.755Z,86.05
2019-03-31T01:41:34.706Z,85.68
2019-03-31T01:43:47.572Z,85.68
2019-03-31T01:44:43.579Z,85.68
2019-03-31T01:45:43.575Z,85.86
2019-03-31T01:46:44.078Z,85.86
2019-03-31T01:49:18.936Z,85.39
2019-03-31T01:50:15.945Z,84.53
2019-03-31T01:51:15.945Z,84.91
2019-03-31T01:52:15.945Z,84.72
2019-03-31T01:53:16.454Z,84.72
2019-03-31T01:54:20.444Z,85.01
2019-03-31T01:55:16.444Z,85.58
2019-03-31T01:56:16.446Z,85.58
2019-03-31T01:57:16.945Z,85.53
2019-03-31T01:58:16.946Z,85.16
2019-03-31T01:59:16.947Z,85.25
2019-03-31T02:00:20.445Z,85.53
2019-03-31T02:01:17.444Z,85.06
2019-03-31T02:02:17.445Z,85.63
2019-03-31T02:03:17.450Z,86.20
2019-03-31T02:04:17.453Z,86.01
2019-03-31T02:05:21.447Z,85.35
2019-03-31T02:06:17.947Z,85.35
2019-03-31T02:07:17.946Z,86.20
2019-03-31T02:08:17.945Z,85.82
2019-03-31T02:09:18.449Z,86.01
2019-03-31T02:10:18.447Z,86.11
2019-03-31T02:11:43.451Z,86.30
2019-03-31T02:12:18.448Z,86.39
2019-03-31T02:13:18.951Z,86.58
2019-03-31T02:14:18.945Z,87.15
2019-03-31T02:15:18.965Z,86.49
2019-03-31T02:16:18.946Z,86.49
2019-03-31T02:17:22.445Z,86.39
2019-03-31T02:18:19.444Z,86.30
2019-03-31T02:19:19.445Z,86.39
2019-03-31T02:20:20.883Z,86.49
2019-03-31T02:21:19.942Z,85.82
2019-03-31T02:22:23.443Z,86.11
2019-03-31T02:23:19.946Z,86.01
2019-03-31T02:24:19.951Z,85.53
2019-03-31T02:25:24.876Z,86.39
2019-03-31T02:26:20.443Z,86.39
2019-03-31T02:27:23.942Z,87.05
2019-03-31T02:28:20.444Z,86.30
2019-03-31T02:29:41.473Z,86.49
2019-03-31T02:30:21.053Z,86.20
2019-03-31T02:31:41.947Z,86.58
2019-03-31T02:32:45.942Z,86.63
2019-03-31T02:33:20.941Z,86.35
2019-03-31T02:34:21.443Z,86.63
2019-03-31T02:35:21.444Z,86.35
2019-03-31T02:36:21.442Z,86.72
2019-03-31T02:37:21.443Z,86.25
2019-03-31T02:38:25.877Z,86.35
2019-03-31T02:40:53.249Z,87.58
2019-03-31T02:42:14.261Z,88.15
2019-03-31T02:42:53.282Z,88.72
2019-03-31T02:43:57.261Z,88.24
2019-03-31T02:44:53.754Z,88.06
2019-03-31T02:45:53.754Z,87.39
2019-03-31T02:46:53.756Z,87.58
2019-03-31T02:47:54.257Z,87.68
2019-03-31T02:48:54.311Z,88.06
2019-03-31T02:49:57.256Z,88.34
2019-03-31T02:50:55.227Z,87.39
2019-03-31T02:51:54.272Z,87.68
2019-03-31T02:52:54.255Z,87.68
2019-03-31T02:53:56.211Z,87.68
2019-03-31T02:54:58.754Z,87.49
2019-03-31T02:56:15.757Z,87.39
2019-03-31T02:58:26.239Z,86.54
2019-03-31T02:59:26.262Z,86.25
2019-03-31T03:00:30.246Z,87.20
2019-03-31T03:01:27.681Z,87.01
2019-03-31T03:02:40.560Z,88.24
2019-03-31T03:03:26.747Z,88.06
2019-03-31T03:04:29.186Z,87.49
2019-03-31T03:05:50.752Z,86.91
2019-03-31T03:06:27.245Z,86.35
2019-03-31T03:07:48.244Z,86.35
2019-03-31T03:08:27.244Z,86.25
2019-03-31T03:09:27.245Z,87.20
2019-03-31T03:10:51.751Z,87.49
2019-03-31T03:13:01.606Z,87.58
2019-03-31T03:14:01.049Z,87.68
2019-03-31T03:14:59.618Z,87.30
2019-03-31T03:16:03.130Z,86.63
2019-03-31T03:17:00.115Z,86.72
2019-03-31T03:18:00.114Z,86.63
2019-03-31T03:19:00.110Z,86.72
2019-03-31T03:20:00.618Z,86.35
2019-03-31T03:21:04.115Z,86.63
2019-03-31T03:22:00.617Z,87.30
2019-03-31T03:23:00.624Z,87.49
2019-03-31T03:25:32.906Z,87.01
2019-03-31T03:26:36.809Z,87.39
2019-03-31T03:27:32.854Z,87.39
2019-03-31T03:28:32.856Z,86.91
2019-03-31T03:29:32.848Z,86.54
2019-03-31T03:30:33.400Z,86.35
2019-03-31T03:31:36.885Z,85.87
2019-03-31T03:32:33.373Z,85.59
2019-03-31T03:33:33.353Z,86.16
2019-03-31T03:34:34.081Z,86.35
2019-03-31T03:35:33.853Z,86.44
2019-03-31T03:36:33.851Z,86.54
2019-03-31T03:37:37.852Z,87.01
2019-03-31T03:38:34.352Z,87.20
2019-03-31T03:39:35.314Z,87.68
2019-03-31T03:40:34.371Z,87.77
2019-03-31T03:41:34.355Z,87.06
2019-03-31T03:42:34.352Z,87.06
2019-03-31T03:44:02.324Z,86.54
2019-03-31T03:44:37.285Z,87.30
2019-03-31T03:45:55.858Z,86.72
2019-03-31T03:46:36.319Z,86.97
2019-03-31T03:47:35.351Z,87.30
2019-03-31T03:49:02.444Z,88.34
2019-03-31T03:49:35.350Z,88.10
2019-03-31T03:50:35.361Z,87.92
2019-03-31T03:51:35.850Z,87.73
2019-03-31T03:52:35.852Z,87.82
2019-03-31T03:53:35.852Z,88.10
2019-03-31T03:54:40.358Z,88.01
2019-03-31T03:55:36.350Z,88.10
2019-03-31T03:56:36.357Z,88.20
2019-03-31T03:57:36.350Z,88.01
2019-03-31T03:58:36.359Z,87.92
2019-03-31T04:00:07.349Z,88.01
2019-03-31T04:00:36.855Z,88.06
2019-03-31T04:01:36.851Z,88.10
2019-03-31T04:02:42.848Z,88.20
2019-03-31T04:03:58.350Z,88.10
2019-03-31T04:05:01.889Z,87.63
2019-03-31T04:05:37.351Z,87.92
2019-03-31T04:06:37.351Z,88.01
2019-03-31T04:09:09.084Z,88.10
2019-03-31T04:10:13.099Z,88.01
2019-03-31T04:11:09.099Z,88.39
2019-03-31T04:12:09.604Z,87.63
2019-03-31T04:13:09.590Z,87.35
2019-03-31T04:14:09.590Z,87.35
2019-03-31T04:15:09.670Z,86.97
2019-03-31T04:16:13.094Z,87.63
2019-03-31T04:17:10.090Z,88.10
2019-03-31T04:18:10.088Z,88.58
2019-03-31T04:19:10.165Z,88.39
2019-03-31T04:20:10.587Z,88.68
2019-03-31T04:21:14.090Z,88.87
2019-03-31T04:22:10.598Z,88.77
2019-03-31T04:23:10.585Z,88.77
2019-03-31T04:24:11.094Z,88.01
2019-03-31T04:25:11.090Z,88.68
2019-03-31T04:26:35.588Z,88.39
2019-03-31T04:27:11.088Z,88.77
2019-03-31T04:28:32.587Z,88.68
2019-03-31T04:29:32.597Z,88.87
2019-03-31T04:30:32.587Z,88.87
2019-03-31T04:31:11.590Z,88.68
2019-03-31T04:32:15.091Z,88.58
2019-03-31T04:33:12.091Z,88.68
2019-03-31T04:34:12.171Z,88.87
2019-03-31T04:35:12.091Z,88.77
2019-03-31T04:36:16.021Z,89.15
2019-03-31T04:37:16.627Z,88.96
2019-03-31T04:38:12.596Z,88.68
2019-03-31T04:39:12.585Z,88.96
2019-03-31T04:40:33.587Z,88.96
2019-03-31T04:41:13.085Z,88.68
2019-03-31T04:42:13.090Z,88.77
2019-03-31T04:43:16.586Z,88.39
2019-03-31T04:44:13.086Z,88.10
2019-03-31T04:45:13.585Z,88.58
2019-03-31T04:46:13.596Z,88.77
2019-03-31T04:47:13.588Z,87.92
2019-03-31T04:48:19.585Z,88.01
2019-03-31T04:49:14.086Z,87.54
2019-03-31T04:50:14.085Z,87.25
2019-03-31T04:51:14.089Z,88.01
2019-03-31T04:52:14.084Z,88.01
2019-03-31T04:53:17.588Z,88.20
2019-03-31T04:54:14.588Z,88.01
2019-03-31T04:55:14.584Z,87.82
2019-03-31T04:56:14.587Z,88.01
2019-03-31T04:57:15.084Z,88.01
2019-03-31T04:58:19.084Z,88.77
2019-03-31T04:59:15.083Z,88.58
2019-03-31T05:00:15.083Z,88.39
2019-03-31T05:01:15.585Z,87.82
2019-03-31T05:02:15.587Z,88.10
2019-03-31T05:03:15.585Z,87.54
2019-03-31T05:04:19.091Z,86.97
2019-03-31T05:05:16.084Z,86.97
2019-03-31T05:06:16.094Z,86.97
2019-03-31T05:07:16.083Z,87.16
2019-03-31T05:08:16.083Z,87.16
2019-03-31T05:09:20.083Z,87.54
2019-03-31T05:10:16.582Z,87.63
2019-03-31T05:11:16.582Z,87.92
2019-03-31T05:12:16.975Z,88.10
2019-03-31T05:13:17.083Z,88.10
2019-03-31T05:14:17.083Z,87.92
2019-03-31T05:15:21.082Z,88.01
2019-03-31T05:16:17.082Z,88.87
2019-03-31T05:18:48.815Z,88.77
2019-03-31T05:19:48.823Z,88.77
2019-03-31T05:22:24.982Z,88.96
2019-03-31T05:23:26.019Z,89.43
2019-03-31T05:24:24.032Z,88.87
2019-03-31T05:25:25.453Z,89.25
2019-03-31T05:26:28.019Z,88.77
2019-03-31T05:27:24.519Z,88.77
2019-03-31T05:28:24.520Z,88.87
2019-03-31T05:29:24.518Z,88.96
2019-03-31T05:30:47.490Z,88.96
2019-03-31T05:31:25.018Z,88.87
2019-03-31T05:32:28.019Z,88.77
2019-03-31T05:33:25.024Z,89.06
2019-03-31T05:34:25.519Z,89.06
2019-03-31T05:35:27.078Z,89.43
2019-03-31T05:36:25.520Z,89.53
2019-03-31T05:39:21.797Z,89.53
2019-03-31T05:40:00.808Z,89.15
2019-03-31T05:41:00.843Z,89.43
2019-03-31T05:42:22.301Z,89.15
2019-03-31T05:43:04.797Z,88.77
2019-03-31T05:44:22.306Z,89.34
2019-03-31T05:45:01.301Z,88.96
2019-03-31T05:46:01.802Z,89.53
2019-03-31T05:47:01.878Z,89.43
2019-03-31T05:48:27.300Z,90.00
2019-03-31T05:49:01.800Z,89.72
2019-03-31T05:50:01.801Z,89.06
2019-03-31T05:51:25.733Z,89.43
2019-03-31T05:52:23.299Z,88.96
2019-03-31T05:53:02.301Z,89.53
2019-03-31T05:54:28.290Z,89.34
2019-03-31T05:55:02.800Z,89.43
2019-03-31T05:56:04.233Z,89.72
2019-03-31T05:57:02.799Z,89.62
2019-03-31T05:58:04.273Z,89.15
2019-03-31T05:59:27.799Z,88.96
2019-03-31T06:00:25.272Z,89.15
2019-03-31T06:02:34.786Z,89.72
2019-03-31T06:03:55.768Z,89.62
2019-03-31T06:04:38.765Z,89.15
2019-03-31T06:07:27.498Z,89.25
2019-03-31T06:08:06.506Z,89.20
2019-03-31T06:09:06.504Z,88.91
2019-03-31T06:10:10.504Z,89.10
2019-03-31T06:11:07.004Z,89.48
2019-03-31T06:12:07.013Z,89.58
2019-03-31T06:13:07.004Z,89.67
2019-03-31T06:14:07.506Z,89.76
2019-03-31T06:15:07.506Z,89.86
2019-03-31T06:16:11.507Z,88.91
2019-03-31T06:17:07.504Z,89.67
2019-03-31T06:18:08.004Z,89.48
2019-03-31T06:19:08.011Z,89.67
2019-03-31T06:20:08.004Z,89.48
2019-03-31T06:21:08.003Z,89.67
2019-03-31T06:22:12.938Z,89.76
2019-03-31T06:23:08.503Z,88.91
2019-03-31T06:24:29.501Z,89.76
2019-03-31T06:25:08.623Z,89.76
2019-03-31T06:26:30.011Z,89.86
2019-03-31T06:27:11.502Z,89.67
2019-03-31T06:28:09.003Z,89.20
2019-03-31T06:29:09.002Z,89.43
2019-03-31T06:30:09.504Z,89.53
2019-03-31T06:31:09.499Z,89.33
2019-03-31T06:32:13.003Z,89.14
2019-03-31T06:33:09.505Z,89.14
2019-03-31T06:34:10.014Z,88.76
2019-03-31T06:35:30.999Z,88.48
2019-03-31T06:36:10.000Z,88.29
2019-03-31T06:37:14.001Z,87.91
2019-03-31T06:38:10.501Z,88.01
2019-03-31T06:39:10.511Z,88.10
2019-03-31T06:40:10.502Z,88.34
2019-03-31T06:41:10.503Z,87.95
2019-03-31T06:42:11.002Z,88.15
2019-03-31T06:43:15.005Z,88.53
2019-03-31T06:44:11.009Z,88.15
2019-03-31T06:45:11.002Z,87.38
2019-03-31T06:46:11.522Z,86.82
2019-03-31T06:47:13.507Z,87.01
2019-03-31T06:48:11.506Z,86.29
2019-03-31T06:49:15.000Z,86.67
2019-03-31T06:50:12.000Z,86.38
2019-03-31T06:51:12.001Z,86.19
2019-03-31T06:52:12.003Z,85.91
2019-03-31T06:53:12.968Z,86.38
2019-03-31T06:54:16.001Z,86.47
2019-03-31T06:55:12.512Z,86.38
2019-03-31T06:56:12.506Z,85.81
2019-03-31T06:57:12.501Z,85.81
2019-03-31T06:58:13.023Z,85.43
2019-03-31T06:59:19.502Z,85.00
2019-03-31T07:00:13.009Z,84.81
2019-03-31T07:01:13.000Z,84.72
2019-03-31T07:02:34.499Z,84.24
2019-03-31T07:03:13.504Z,84.43
2019-03-31T07:04:13.500Z,84.28
2019-03-31T07:06:50.730Z,83.04
2019-03-31T07:07:48.737Z,82.95
2019-03-31T07:09:09.751Z,82.61
2019-03-31T07:11:24.498Z,82.32
2019-03-31T07:12:41.503Z,81.09
2019-03-31T07:13:20.513Z,80.52
2019-03-31T07:14:21.007Z,81.28
2019-03-31T07:15:21.007Z,80.61
2019-03-31T07:16:21.011Z,79.57
2019-03-31T07:17:24.507Z,79.57
2019-03-31T07:18:21.506Z,78.99
2019-03-31T07:19:21.506Z,79.28
2019-03-31T07:20:21.508Z,79.94
2019-03-31T07:21:21.506Z,79.94
2019-03-31T07:23:56.938Z,78.75
2019-03-31T07:24:56.951Z,79.13
2019-03-31T07:25:56.942Z,78.75
2019-03-31T07:26:57.444Z,79.13
2019-03-31T07:28:00.940Z,78.27
2019-03-31T07:29:18.440Z,78.37
2019-03-31T07:30:18.451Z,78.94
2019-03-31T07:30:59.940Z,79.03
2019-03-31T07:31:57.941Z,79.46
2019-03-31T07:32:57.940Z,78.27
2019-03-31T07:34:01.944Z,77.03
2019-03-31T07:35:19.440Z,77.61
2019-03-31T07:36:19.438Z,76.84
2019-03-31T07:37:19.440Z,77.17
2019-03-31T07:37:58.440Z,77.74
2019-03-31T07:39:23.788Z,78.03
2019-03-31T07:40:20.104Z,77.93
2019-03-31T07:41:12.119Z,78.12
2019-03-31T07:41:58.571Z,76.88
2019-03-31T07:42:59.466Z,76.98
2019-03-31T07:43:59.439Z,77.17
2019-03-31T07:45:03.440Z,77.64
2019-03-31T07:45:59.440Z,77.07
2019-03-31T07:46:59.941Z,77.64
2019-03-31T07:47:59.943Z,76.79
2019-03-31T07:48:59.946Z,76.03
2019-03-31T07:49:59.939Z,76.88
2019-03-31T07:51:04.439Z,76.69
2019-03-31T07:52:00.470Z,76.69
2019-03-31T07:53:01.379Z,77.17
2019-03-31T07:54:00.439Z,77.26
2019-03-31T07:55:00.440Z,77.64
2019-03-31T07:56:00.940Z,77.83
2019-03-31T07:57:07.008Z,77.83
2019-03-31T07:58:00.939Z,78.12
2019-03-31T07:59:00.974Z,77.49
2019-03-31T08:00:22.446Z,76.82
2019-03-31T08:01:22.439Z,77.11
2019-03-31T08:02:05.443Z,76.35
2019-03-31T08:03:01.446Z,76.06
2019-03-31T08:04:05.382Z,75.72
2019-03-31T08:05:01.939Z,75.53
2019-03-31T08:06:01.953Z,76.10
2019-03-31T08:07:01.941Z,75.62
2019-03-31T08:08:26.435Z,74.96
2019-03-31T08:09:02.443Z,74.32
2019-03-31T08:10:23.445Z,74.01
2019-03-31T08:11:02.439Z,73.75
2019-03-31T08:12:23.938Z,74.42
2019-03-31T08:13:27.438Z,74.61
2019-03-31T08:14:02.938Z,74.13
2019-03-31T08:15:02.937Z,73.08
2019-03-31T08:16:24.465Z,72.71
2019-03-31T08:17:03.442Z,72.80
2019-03-31T08:18:08.939Z,72.80
2019-03-31T08:19:03.443Z,73.18
2019-03-31T08:21:37.180Z,72.80
2019-03-31T08:22:35.183Z,73.18
2019-03-31T08:23:39.190Z,73.85
2019-03-31T08:24:37.618Z,74.52
2019-03-31T08:25:35.684Z,73.98
2019-03-31T08:26:35.683Z,73.32
2019-03-31T08:27:36.183Z,73.12
2019-03-31T08:28:36.195Z,72.55
2019-03-31T08:30:07.118Z,72.45
2019-03-31T08:30:36.183Z,71.50
2019-03-31T08:31:36.681Z,72.26
2019-03-31T08:32:36.684Z,72.83
2019-03-31T08:33:36.683Z,72.36
2019-03-31T08:34:40.681Z,72.45
2019-03-31T08:35:47.161Z,72.17
2019-03-31T08:36:37.217Z,72.26
2019-03-31T08:37:37.189Z,71.98
2019-03-31T08:38:37.183Z,72.36
2019-03-31T08:39:37.687Z,71.88
2019-03-31T08:40:41.683Z,72.17
2019-03-31T08:41:37.692Z,71.78
2019-03-31T08:42:37.683Z,71.59
2019-03-31T08:43:38.183Z,71.34
2019-03-31T08:44:39.128Z,71.12
2019-03-31T08:45:38.183Z,71.88
2019-03-31T08:46:41.683Z,72.45
2019-03-31T08:47:38.184Z,71.98
2019-03-31T08:48:41.617Z,72.45
2019-03-31T08:50:02.074Z,72.64
2019-03-31T08:50:43.120Z,72.74
2019-03-31T08:51:42.685Z,72.39
2019-03-31T08:53:00.185Z,72.20
2019-03-31T08:54:00.182Z,72.30
2019-03-31T08:54:39.186Z,72.49
2019-03-31T08:55:40.139Z,70.87
2019-03-31T08:56:42.686Z,70.87
2019-03-31T08:57:41.683Z,70.71
2019-03-31T08:58:39.684Z,70.90
2019-03-31T08:59:39.686Z,70.61
2019-03-31T09:00:41.683Z,69.09
2019-03-31T09:01:44.185Z,69.56
2019-03-31T09:02:40.191Z,69.34
2019-03-31T09:03:40.183Z,69.62
2019-03-31T09:04:40.185Z,69.43
2019-03-31T09:05:40.683Z,69.56
2019-03-31T09:06:40.683Z,69.37
2019-03-31T09:07:43.681Z,69.27
2019-03-31T09:08:40.686Z,68.70
2019-03-31T09:09:41.182Z,68.61
2019-03-31T09:10:41.185Z,69.09
2019-03-31T09:11:41.183Z,69.02
2019-03-31T09:12:48.305Z,68.70
2019-03-31T09:13:41.682Z,68.13
2019-03-31T09:14:43.682Z,69.76
2019-03-31T09:15:41.684Z,69.95
2019-03-31T09:16:41.684Z,69.41
2019-03-31T09:18:12.683Z,68.70
2019-03-31T09:18:42.182Z,68.07
2019-03-31T09:20:03.189Z,68.07
2019-03-31T09:20:42.182Z,68.35
2019-03-31T09:21:43.639Z,66.83
2019-03-31T09:22:42.682Z,67.63
2019-03-31T09:23:46.183Z,67.14
2019-03-31T09:24:42.756Z,67.05
2019-03-31T09:25:42.685Z,66.47
2019-03-31T09:26:43.183Z,66.00
2019-03-31T09:27:43.182Z,65.52
2019-03-31T09:28:43.184Z,66.00
2019-03-31T09:29:47.187Z,67.30
2019-03-31T09:30:43.689Z,66.54
2019-03-31T09:31:43.685Z,66.83
2019-03-31T09:32:43.690Z,66.54
2019-03-31T09:33:43.684Z,66.92
2019-03-31T09:34:44.182Z,66.28
2019-03-31T09:35:48.183Z,66.38
2019-03-31T09:36:44.245Z,66.19
2019-03-31T09:37:44.182Z,67.05
2019-03-31T09:38:44.180Z,66.57
2019-03-31T09:41:19.933Z,66.00
2019-03-31T09:42:15.931Z,66.67
2019-03-31T09:43:15.945Z,66.09
2019-03-31T09:44:16.432Z,66.38
2019-03-31T09:45:16.437Z,65.71
2019-03-31T09:46:16.431Z,66.76
2019-03-31T09:47:19.934Z,65.81
2019-03-31T09:48:16.931Z,65.81
2019-03-31T09:51:09.306Z,66.28
2019-03-31T09:51:48.308Z,66.67
2019-03-31T09:52:52.305Z,66.86
2019-03-31T09:53:48.805Z,66.76
2019-03-31T09:54:48.806Z,66.09
2019-03-31T09:55:48.806Z,66.03
2019-03-31T09:56:48.811Z,65.45
2019-03-31T09:57:49.306Z,66.03
2019-03-31T09:58:52.310Z,65.94
2019-03-31T09:59:49.307Z,66.13
2019-03-31T10:00:49.316Z,65.97
2019-03-31T10:01:49.805Z,65.68
2019-03-31T10:02:49.806Z,66.06
2019-03-31T10:03:53.305Z,65.30
2019-03-31T10:04:49.805Z,65.11
2019-03-31T10:05:50.311Z,65.01
2019-03-31T10:06:50.306Z,65.62
2019-03-31T10:07:50.305Z,65.14
2019-03-31T10:08:50.306Z,65.97
2019-03-31T10:09:54.305Z,64.53
2019-03-31T10:10:50.806Z,64.98
2019-03-31T10:11:50.806Z,66.13
2019-03-31T10:12:50.805Z,66.22
2019-03-31T10:13:51.305Z,67.27
2019-03-31T10:14:54.136Z,66.03
2019-03-31T10:15:55.311Z,65.94
2019-03-31T10:16:51.313Z,65.94
2019-03-31T10:17:51.806Z,66.22
2019-03-31T10:18:52.740Z,66.45
2019-03-31T10:19:51.808Z,65.97
2019-03-31T10:20:51.811Z,66.25
2019-03-31T10:21:55.305Z,65.68
2019-03-31T10:22:52.304Z,65.39
2019-03-31T10:23:52.308Z,65.20
2019-03-31T10:24:52.306Z,65.88
2019-03-31T10:25:52.806Z,65.97
2019-03-31T10:27:17.823Z,65.01
2019-03-31T10:27:52.806Z,65.49
2019-03-31T10:28:52.806Z,65.14
2019-03-31T10:29:53.310Z,65.30
2019-03-31T10:30:53.363Z,65.30
2019-03-31T10:31:56.806Z,65.58
2019-03-31T10:32:53.305Z,65.17
2019-03-31T10:33:53.806Z,66.41
2019-03-31T10:34:53.806Z,66.89
2019-03-31T10:35:53.807Z,66.89
2019-03-31T10:36:57.804Z,66.45
2019-03-31T10:37:54.305Z,66.16
2019-03-31T10:38:54.305Z,65.78
2019-03-31T10:39:54.306Z,65.81
2019-03-31T10:40:54.309Z,65.20
2019-03-31T10:41:54.807Z,64.76
2019-03-31T10:42:57.811Z,64.56
2019-03-31T10:43:54.806Z,64.53
2019-03-31T10:44:54.806Z,64.95
2019-03-31T10:45:55.303Z,66.09
2019-03-31T10:46:58.324Z,65.91
2019-03-31T10:47:59.312Z,65.11
2019-03-31T10:48:55.359Z,65.49
2019-03-31T10:50:16.806Z,65.68
2019-03-31T10:52:27.197Z,65.58
2019-03-31T10:53:29.686Z,64.85
2019-03-31T10:54:27.186Z,64.85
2019-03-31T10:55:28.627Z,65.05
2019-03-31T10:57:59.057Z,64.56
2019-03-31T10:59:03.064Z,64.85
2019-03-31T10:59:59.565Z,64.66
2019-03-31T11:00:59.573Z,63.80
2019-03-31T11:01:59.565Z,63.83
2019-03-31T11:02:59.638Z,64.12
2019-03-31T11:04:00.067Z,63.35
2019-03-31T11:05:03.064Z,63.19
2019-03-31T11:06:00.066Z,62.23
2019-03-31T11:07:03.375Z,61.18
2019-03-31T11:08:00.565Z,60.50
2019-03-31T11:09:00.565Z,60.12
2019-03-31T11:10:09.000Z,59.77
2019-03-31T11:11:00.565Z,60.60
2019-03-31T11:12:01.065Z,60.31
2019-03-31T11:13:01.066Z,60.57
2019-03-31T11:14:01.069Z,60.96
2019-03-31T11:15:01.072Z,61.34
2019-03-31T11:17:36.849Z,62.20
2019-03-31T11:18:36.846Z,61.46
2019-03-31T11:19:36.846Z,61.56
2019-03-31T11:20:37.346Z,61.18
2019-03-31T11:21:40.847Z,60.22
2019-03-31T11:22:38.781Z,60.99
2019-03-31T11:23:37.347Z,60.79
2019-03-31T11:24:37.848Z,60.41
2019-03-31T11:25:37.847Z,60.70
2019-03-31T11:26:37.847Z,59.77
2019-03-31T11:27:43.850Z,59.96
2019-03-31T11:28:39.782Z,59.83
2019-03-31T11:31:30.667Z,59.96
2019-03-31T11:32:09.675Z,59.00
2019-03-31T11:33:13.674Z,59.09
2019-03-31T11:34:10.186Z,59.00
2019-03-31T11:35:10.174Z,58.33
2019-03-31T11:36:10.174Z,59.00
2019-03-31T11:37:13.665Z,58.81
2019-03-31T11:38:13.673Z,59.09
2019-03-31T11:39:10.674Z,59.55
2019-03-31T11:40:10.673Z,59.80
2019-03-31T11:41:11.173Z,60.67
2019-03-31T11:42:11.174Z,60.38
2019-03-31T11:43:15.177Z,60.47
2019-03-31T11:44:11.180Z,60.50
2019-03-31T11:45:11.674Z,60.67
2019-03-31T11:46:11.675Z,60.38
2019-03-31T11:47:11.675Z,60.57
2019-03-31T11:48:11.684Z,60.54
2019-03-31T11:49:37.245Z,61.11
2019-03-31T11:50:12.175Z,61.88
2019-03-31T11:51:33.173Z,62.17
2019-03-31T11:52:12.177Z,62.01
2019-03-31T11:53:12.171Z,60.70
2019-03-31T11:54:12.675Z,59.96
2019-03-31T11:55:16.176Z,57.78
2019-03-31T11:56:12.676Z,56.59
2019-03-31T11:57:12.677Z,55.18
2019-03-31T11:58:13.174Z,54.82
2019-03-31T11:59:13.174Z,53.11
2019-03-31T12:00:17.174Z,51.48
2019-03-31T12:01:13.174Z,51.57
2019-03-31T12:02:36.674Z,52.03
2019-03-31T12:03:13.676Z,52.22
2019-03-31T12:04:13.676Z,52.87
2019-03-31T12:05:13.675Z,53.03
2019-03-31T12:06:17.175Z,53.32
2019-03-31T12:07:27.399Z,54.00
2019-03-31T12:08:14.181Z,54.16
2019-03-31T12:09:14.178Z,54.83
2019-03-31T12:10:14.680Z,56.24
2019-03-31T12:11:18.175Z,56.92
2019-03-31T12:12:14.675Z,57.85
2019-03-31T12:13:14.675Z,58.52
2019-03-31T12:14:15.184Z,59.19
2019-03-31T12:15:15.175Z,59.06
2019-03-31T12:16:15.175Z,59.90
2019-03-31T12:17:40.176Z,60.86
2019-03-31T12:18:15.683Z,60.86
2019-03-31T12:19:15.676Z,61.79
2019-03-31T12:20:15.675Z,61.60
2019-03-31T12:21:15.676Z,61.79
2019-03-31T12:22:16.178Z,62.84
2019-03-31T12:23:40.176Z,62.07
2019-03-31T12:24:16.176Z,62.17
2019-03-31T12:25:37.174Z,61.88
2019-03-31T12:26:16.675Z,62.65
2019-03-31T12:27:16.680Z,62.46
2019-03-31T12:28:20.176Z,62.74
2019-03-31T12:29:16.684Z,63.03
2019-03-31T12:30:17.178Z,62.74
2019-03-31T12:31:38.176Z,61.98
2019-03-31T12:32:17.176Z,61.88
2019-03-31T12:33:17.176Z,62.17
2019-03-31T12:34:21.187Z,62.07
2019-03-31T12:35:17.676Z,61.88
2019-03-31T12:36:17.677Z,61.88
2019-03-31T12:37:17.676Z,62.36
2019-03-31T12:38:19.133Z,63.22
2019-03-31T12:39:18.187Z,63.13
2019-03-31T12:40:21.178Z,62.55
2019-03-31T12:41:18.179Z,63.42
2019-03-31T12:42:18.176Z,62.74
2019-03-31T12:44:49.948Z,62.55
2019-03-31T12:45:53.921Z,63.03
2019-03-31T12:46:50.432Z,62.65
2019-03-31T12:47:50.428Z,63.03
2019-03-31T12:48:50.428Z,62.17
2019-03-31T12:49:50.428Z,61.34
2019-03-31T12:50:50.933Z,60.57
2019-03-31T12:51:55.341Z,60.31
2019-03-31T12:52:51.268Z,59.61
2019-03-31T12:53:51.339Z,59.71
2019-03-31T12:54:51.428Z,60.28
2019-03-31T12:55:59.954Z,60.22
2019-03-31T12:57:17.863Z,58.78
2019-03-31T12:57:51.977Z,58.23
2019-03-31T12:59:12.931Z,57.85
2019-03-31T12:59:51.931Z,58.87
2019-03-31T13:00:51.936Z,58.97
2019-03-31T13:01:51.935Z,59.16
2019-03-31T13:02:55.940Z,59.16
2019-03-31T13:03:52.429Z,58.78
2019-03-31T13:04:52.429Z,59.06
2019-03-31T13:05:54.428Z,59.13
2019-03-31T13:06:56.366Z,58.94
2019-03-31T13:07:56.435Z,59.42
2019-03-31T13:08:55.933Z,59.42
2019-03-31T13:09:53.004Z,60.57
2019-03-31T13:10:53.434Z,60.47
2019-03-31T13:11:53.439Z,59.61
2019-03-31T13:12:53.430Z,59.77
2019-03-31T13:13:57.429Z,59.97
2019-03-31T13:14:53.930Z,60.38
2019-03-31T13:15:53.928Z,60.19
2019-03-31T13:16:53.929Z,60.76
2019-03-31T13:17:53.931Z,60.28
2019-03-31T13:18:54.429Z,60.57
2019-03-31T13:19:58.429Z,60.57
2019-03-31T13:20:54.429Z,60.19
2019-03-31T13:21:54.434Z,59.80
2019-03-31T13:22:54.929Z,60.03
2019-03-31T13:23:54.929Z,58.04
2019-03-31T13:24:54.930Z,56.24
2019-03-31T13:25:58.433Z,54.86
2019-03-31T13:28:26.688Z,52.51
2019-03-31T13:29:26.683Z,51.41
2019-03-31T13:30:26.688Z,49.87
2019-03-31T13:31:30.690Z,49.51
2019-03-31T13:32:27.183Z,48.90
2019-03-31T13:33:27.184Z,49.33
2019-03-31T13:34:27.185Z,49.91
2019-03-31T13:35:27.685Z,49.74
2019-03-31T13:36:27.685Z,48.93
2019-03-31T13:37:31.627Z,48.61